EDT,Max TemperatureF,Mean TemperatureF,Min TemperatureF,Max Dew PointF,MeanDew PointF,Min DewpointF,Max Humidity, Mean Humidity, Min Humidity, Max Sea Level PressureIn, Mean Sea Level PressureIn, Min Sea Level PressureIn, Max VisibilityMiles, Mean VisibilityMiles, Min VisibilityMiles, Max Wind SpeedMPH, Mean Wind SpeedMPH, Max Gust SpeedMPH,PrecipitationIn, CloudCover, Events, WindDirDegrees
2013-3-1,39,35,31,28,26,24,85,72,59,29.93,29.90,29.86,10,10,9,21,11,30,T,8,Snow,346
2013-3-2,42,35,27,29,24,19,85,65,45,29.94,29.88,29.84,10,9,2,23,12,33,0.01,8,Snow,350
2013-3-3,33,28,23,19,15,12,75,59,43,30.01,29.96,29.89,10,10,4,26,17,33,T,5,Snow,347
2013-3-4,53,39,24,23,15,11,63,42,21,30.14,30.06,30.00,10,10,10,24,9,31,0.00,0,,341
2013-3-5,51,43,34,47,40,24,100,73,46,30.03,29.77,29.64,10,7,1,23,5,33,0.68,7,Rain,152
2013-3-6,36,32,27,25,23,19,85,69,52,30.17,29.92,29.68,10,9,3,37,18,48,T,7,Snow,346
2013-3-7,42,35,28,26,24,21,85,68,51,30.29,30.21,30.10,10,10,10,30,19,37,0.00,4,,344
2013-3-8,51,39,27,24,20,13,81,51,21,30.34,30.29,30.24,10,10,10,22,12,26,0.00,0,,349
2013-3-9,62,43,24,28,24,21,88,56,23,30.35,30.28,30.22,10,10,10,13,4,17,0.00,1,,164
2013-3-10,63,49,34,33,31,28,82,55,27,30.26,30.20,30.13,10,10,10,16,6,22,0.00,0,,148
2013-3-11,57,53,48,52,47,33,100,75,50,30.13,29.97,29.82,10,7,2,16,8,23,0.84,8,Rain,148
2013-3-12,53,46,38,52,40,29,100,71,42,30.03,29.87,29.76,10,8,2,25,15,31,0.17,6,Rain,340
2013-3-13,49,39,29,30,22,15,92,62,31,30.17,30.07,30.02,10,10,10,26,11,35,0.00,2,,338
2013-3-14,47,36,25,16,12,4,60,42,23,30.30,30.23,30.17,10,10,10,29,14,37,0.00,2,,348
2013-3-15,69,48,27,38,26,15,69,45,21,30.20,30.06,29.91,10,10,10,14,5,22,0.00,1,,262
2013-3-16,77,62,47,42,39,37,66,45,24,29.88,29.82,29.73,10,10,10,23,8,36,0.00,0,,286
2013-3-17,73,60,46,46,43,40,80,56,31,29.99,29.89,29.82,10,10,10,18,7,25,0.00,1,,185
2013-3-18,46,42,38,42,39,36,100,88,76,30.06,29.97,29.84,10,4,1,15,7,18,0.39,8,Rain,162
2013-3-19,57,48,39,43,32,11,100,70,15,30.08,29.94,29.86,10,7,0,22,6,32,0.00,4,Fog,344
2013-3-20,56,44,31,32,16,6,85,51,16,30.10,29.94,29.81,10,8,0,21,10,26,0.05,4,Fog-Snow,339
2013-3-21,37,30,22,27,16,9,85,57,29,29.96,29.87,29.80,10,10,6,22,11,29,T,2,Snow,346
2013-3-22,48,36,24,21,14,10,60,43,26,30.04,30.00,29.95,10,10,10,12,4,14,0.00,5,,325
2013-3-23,57,47,36,41,34,24,85,68,51,30.01,29.94,29.86,10,10,10,13,3,15,0.03,6,Rain,329
2013-3-24,45,42,38,41,39,37,100,91,82,29.90,29.66,29.52,10,6,2,15,6,17,0.78,8,Rain,163
2013-3-25,40,35,30,38,25,16,85,65,44,29.89,29.66,29.52,10,10,6,23,12,32,0.01,7,Rain-Snow,302
2013-3-26,39,34,28,25,22,20,75,62,48,30.19,30.03,29.89,10,10,8,25,15,33,T,7,Snow,339
2013-3-27,44,37,29,25,22,17,78,61,43,30.27,30.23,30.17,10,9,1,23,13,30,T,4,Snow,344
2013-3-28,52,39,26,22,19,16,75,50,24,30.31,30.26,30.20,10,10,10,18,7,24,0.00,0,,355
2013-3-29,57,41,25,38,26,19,86,56,26,30.34,30.29,30.23,10,10,10,20,7,24,0.01,4,Rain,327
2013-3-30,62,51,39,45,39,36,100,70,39,30.21,30.15,30.04,10,8,2,14,4,17,0.12,6,Rain,314
2013-3-31,67,57,46,52,48,43,100,72,44,30.03,29.90,29.82,10,8,2,21,4,28,0.23,8,Rain,305